Sibi Weather



Sibi's Current Weather

Temprature 32.15o clear sky

clear sky

Rain: 0 %

Min Temprature32.15o
Max Temprature32.15o
Humidity6
Wind Speed2.34 m/h
Sun Rise06:31:20
Sun Set17:55:49
Current Time: 18-Oct-2019 16:27:05
Lat/Lon: 29.55, 67.88




Sibi's Geo Location



Sibi's Weather Forecast

Time Overall Temp Min Temp Max Temp Humidity Wind Speed Rain
18-Oct-2019 (Fri)
17:00:00 clear sky 31.830 31.830 32.150 6 2.34 m/h 0 %
20:00:00 clear sky 28.120 28.120 28.360 8 3.11 m/h 0 %
23:00:00 clear sky 26.050 26.050 26.208 12 2 m/h 0 %
19-Oct-2019 (Sat)
02:00:00 clear sky 24.810 24.810 24.888 14 2.16 m/h 0 %
05:00:00 clear sky 22.543 22.543 22.543 17 0.86 m/h 0 %
08:00:00 clear sky 26.131 26.131 26.131 14 0.99 m/h 0 %
11:00:00 clear sky 29.510 29.510 29.510 10 1.81 m/h 0 %
14:00:00 clear sky 31.366 31.366 31.366 8 1.66 m/h 0 %
17:00:00 clear sky 31.122 31.122 31.122 8 1.24 m/h 0 %
20:00:00 few clouds 27.418 27.418 27.418 12 1.73 m/h 0 %
23:00:00 scattered clouds 25.247 25.247 25.247 16 0.76 m/h 0 %
20-Oct-2019 (Sun)
02:00:00 clear sky 23.917 23.917 23.917 17 0.81 m/h 0 %
05:00:00 scattered clouds 22.824 22.824 22.824 19 0.54 m/h 0 %
08:00:00 clear sky 26.502 26.502 26.502 17 0.76 m/h 0 %
11:00:00 clear sky 30.770 30.770 30.770 10 1.77 m/h 0 %
14:00:00 clear sky 32.172 32.172 32.172 10 3.24 m/h 0 %
17:00:00 clear sky 31.768 31.768 31.768 13 2.04 m/h 0 %
20:00:00 clear sky 28.012 28.012 28.012 19 1.48 m/h 0 %
23:00:00 clear sky 25.767 25.767 25.767 20 1.16 m/h 0 %
21-Oct-2019 (Mon)
02:00:00 clear sky 23.920 23.920 23.920 18 0.69 m/h 0 %
05:00:00 clear sky 22.921 22.921 22.921 16 1.11 m/h 0 %
08:00:00 clear sky 26.399 26.399 26.399 13 0.97 m/h 0 %
11:00:00 clear sky 30.997 30.997 30.997 9 1.44 m/h 0 %
14:00:00 clear sky 32.785 32.785 32.785 9 2.87 m/h 0 %
17:00:00 clear sky 32.234 32.234 32.234 9 2.03 m/h 0 %
20:00:00 clear sky 28.854 28.854 28.854 12 3.01 m/h 0 %
23:00:00 clear sky 26.260 26.260 26.260 13 1.79 m/h 0 %
22-Oct-2019 (Tue)
02:00:00 clear sky 24.266 24.266 24.266 14 1.34 m/h 0 %
05:00:00 clear sky 22.599 22.599 22.599 14 1.15 m/h 0 %
08:00:00 clear sky 26.132 26.132 26.132 12 0.87 m/h 0 %
11:00:00 clear sky 31.259 31.259 31.259 7 1.5 m/h 0 %
14:00:00 clear sky 33.479 33.479 33.479 7 2.09 m/h 0 %
17:00:00 few clouds 32.942 32.942 32.942 9 1.76 m/h 0 %
20:00:00 broken clouds 28.650 28.650 28.650 14 1.9 m/h 0 %
23:00:00 scattered clouds 28.059 28.059 28.059 15 5.08 m/h 0 %
23-Oct-2019 (Wed)
02:00:00 clear sky 26.636 26.636 26.636 16 4.65 m/h 0 %
05:00:00 clear sky 25.097 25.097 25.097 17 4.52 m/h 0 %
08:00:00 clear sky 26.069 26.069 26.069 15 6.16 m/h 0 %
11:00:00 clear sky 30.745 30.745 30.745 9 8.16 m/h 0 %
14:00:00 clear sky 32.479 32.479 32.479 7 10.49 m/h 0 %

Famous Cities (61)